sensor_id;sensor_type;location;lat;lon;timestamp;P1;durP1;ratioP1;P2;durP2;ratioP2
46633;SDS011;32362;49.986;8.026;2022-08-19T00:11:43;19.67;;;13.38;;
46633;SDS011;32362;49.986;8.026;2022-08-19T00:38:25;17.45;;;13.93;;
46633;SDS011;32362;49.986;8.026;2022-08-19T01:05:08;16.20;;;13.18;;
46633;SDS011;32362;49.986;8.026;2022-08-19T01:31:53;13.95;;;12.45;;
46633;SDS011;32362;49.986;8.026;2022-08-19T01:58:35;16.35;;;13.00;;
46633;SDS011;32362;49.986;8.026;2022-08-19T02:25:26;15.88;;;12.55;;
46633;SDS011;32362;49.986;8.026;2022-08-19T02:52:07;14.48;;;11.80;;
46633;SDS011;32362;49.986;8.026;2022-08-19T03:18:49;16.20;;;13.30;;
46633;SDS011;32362;49.986;8.026;2022-08-19T03:45:31;17.63;;;14.35;;
46633;SDS011;32362;49.986;8.026;2022-08-19T04:12:11;20.00;;;14.77;;
46633;SDS011;32362;49.986;8.026;2022-08-19T04:38:53;23.33;;;15.30;;
46633;SDS011;32362;49.986;8.026;2022-08-19T05:05:39;15.07;;;12.97;;
46633;SDS011;32362;49.986;8.026;2022-08-19T05:32:21;16.25;;;11.65;;
46633;SDS011;32362;49.986;8.026;2022-08-19T05:59:04;16.20;;;12.60;;
46633;SDS011;32362;49.986;8.026;2022-08-19T06:25:49;13.63;;;10.55;;
46633;SDS011;32362;49.986;8.026;2022-08-19T06:52:30;10.40;;;8.97;;
46633;SDS011;32362;49.986;8.026;2022-08-19T07:19:12;11.35;;;8.63;;
46633;SDS011;32362;49.986;8.026;2022-08-19T07:45:54;11.68;;;8.40;;
46633;SDS011;32362;49.986;8.026;2022-08-19T08:12:39;16.08;;;10.68;;
46633;SDS011;32362;49.986;8.026;2022-08-19T08:39:21;18.83;;;13.43;;
46633;SDS011;32362;49.986;8.026;2022-08-19T09:06:03;15.05;;;11.13;;
46633;SDS011;32362;49.986;8.026;2022-08-19T09:32:44;8.25;;;6.10;;
46633;SDS011;32362;49.986;8.026;2022-08-19T09:59:25;6.27;;;4.90;;
46633;SDS011;32362;49.986;8.026;2022-08-19T10:26:06;5.18;;;4.00;;
46633;SDS011;32362;49.986;8.026;2022-08-19T10:52:48;7.78;;;4.00;;
46633;SDS011;32362;49.986;8.026;2022-08-19T11:19:30;8.70;;;4.55;;
46633;SDS011;32362;49.986;8.026;2022-08-19T11:46:12;6.93;;;4.03;;
46633;SDS011;32362;49.986;8.026;2022-08-19T12:12:54;2.95;;;2.15;;
46633;SDS011;32362;49.986;8.026;2022-08-19T12:39:36;3.87;;;2.47;;
46633;SDS011;32362;49.986;8.026;2022-08-19T13:06:18;4.15;;;2.55;;
46633;SDS011;32362;49.986;8.026;2022-08-19T13:32:59;4.57;;;2.70;;
46633;SDS011;32362;49.986;8.026;2022-08-19T13:59:54;3.03;;;2.72;;
46633;SDS011;32362;49.986;8.026;2022-08-19T14:26:35;4.97;;;3.15;;
46633;SDS011;32362;49.986;8.026;2022-08-19T14:53:15;5.13;;;3.43;;
46633;SDS011;32362;49.986;8.026;2022-08-19T15:19:56;4.03;;;3.63;;
46633;SDS011;32362;49.986;8.026;2022-08-19T15:46:38;7.22;;;4.00;;
46633;SDS011;32362;49.986;8.026;2022-08-19T16:13:22;5.82;;;3.70;;
46633;SDS011;32362;49.986;8.026;2022-08-19T16:40:03;5.20;;;3.80;;
46633;SDS011;32362;49.986;8.026;2022-08-19T17:06:46;4.80;;;4.30;;
46633;SDS011;32362;49.986;8.026;2022-08-19T17:33:27;7.18;;;5.40;;
46633;SDS011;32362;49.986;8.026;2022-08-19T18:00:07;10.85;;;6.70;;
46633;SDS011;32362;49.986;8.026;2022-08-19T18:26:54;6.55;;;5.22;;
46633;SDS011;32362;49.986;8.026;2022-08-19T18:53:35;8.07;;;6.07;;
46633;SDS011;32362;49.986;8.026;2022-08-19T19:20:18;6.30;;;5.60;;
46633;SDS011;32362;49.986;8.026;2022-08-19T19:46:58;8.10;;;4.50;;
46633;SDS011;32362;49.986;8.026;2022-08-19T20:13:40;7.25;;;3.00;;
46633;SDS011;32362;49.986;8.026;2022-08-19T20:40:21;2.83;;;1.70;;
46633;SDS011;32362;49.986;8.026;2022-08-19T21:07:02;3.23;;;1.90;;
46633;SDS011;32362;49.986;8.026;2022-08-19T21:33:43;1.90;;;1.60;;
46633;SDS011;32362;49.986;8.026;2022-08-19T22:00:25;1.67;;;1.52;;
46633;SDS011;32362;49.986;8.026;2022-08-19T22:27:07;3.38;;;1.60;;
46633;SDS011;32362;49.986;8.026;2022-08-19T22:53:48;4.00;;;1.47;;
46633;SDS011;32362;49.986;8.026;2022-08-19T23:20:33;1.80;;;1.50;;
46633;SDS011;32362;49.986;8.026;2022-08-19T23:47:15;4.90;;;1.50;;
